createdAt,value
2023-08-31T00:00:51.483Z,100029.47
2023-08-31T00:03:23.174Z,100039.53
2023-08-31T00:05:55.104Z,100036.22
2023-08-31T00:08:26.634Z,100043.41
2023-08-31T00:10:58.279Z,100045.06
2023-08-31T00:13:30.436Z,100043.41
2023-08-31T00:16:02.475Z,100033.72
2023-08-31T00:18:33.993Z,100034.56
2023-08-31T00:21:05.513Z,100029.69
2023-08-31T00:23:37.044Z,100030.13
2023-08-31T00:26:08.787Z,100026.44
2023-08-31T00:28:40.624Z,100018.28
2023-08-31T00:31:12.465Z,100009.44
2023-08-31T00:33:44.300Z,100017.78
2023-08-31T00:36:15.824Z,100026.44
2023-08-31T00:38:47.345Z,100024.16
2023-08-31T00:41:18.849Z,100030.50
2023-08-31T00:43:50.787Z,100029.88
2023-08-31T00:46:22.369Z,100028.22
2023-08-31T00:48:54.234Z,100033.75
2023-08-31T00:51:25.760Z,100026.34
2023-08-31T00:53:57.440Z,100018.84
2023-08-31T00:56:28.957Z,100025.84
2023-08-31T00:59:00.918Z,100023.28
2023-08-31T01:01:32.803Z,100034.97
2023-08-31T01:04:04.490Z,100032.88
2023-08-31T01:06:36.460Z,100036.63
2023-08-31T01:09:07.998Z,100038.47
2023-08-31T01:11:39.821Z,100035.63
2023-08-31T01:14:11.336Z,100030.91
2023-08-31T01:16:43.232Z,100047.94
2023-08-31T01:19:14.755Z,100043.16
2023-08-31T01:21:46.436Z,100051.38
2023-08-31T01:24:17.935Z,100049.91
2023-08-31T01:26:49.445Z,100051.19
2023-08-31T01:29:20.986Z,100048.13
2023-08-31T01:31:52.740Z,100049.59
2023-08-31T01:34:24.529Z,100064.13
2023-08-31T01:36:56.062Z,100050.53
2023-08-31T01:39:27.817Z,100065.66
2023-08-31T01:41:59.322Z,100055.72
2023-08-31T01:44:31.049Z,100060.22
2023-08-31T01:47:02.550Z,100059.41
2023-08-31T01:49:34.395Z,100064.47
2023-08-31T01:52:05.915Z,100070.00
2023-08-31T01:54:37.640Z,100069.91
2023-08-31T01:57:09.134Z,100086.47
2023-08-31T01:59:40.969Z,100084.72
2023-08-31T02:02:12.875Z,100085.66
2023-08-31T02:04:44.454Z,100099.09
2023-08-31T02:07:16.185Z,100097.97
2023-08-31T02:09:47.689Z,100100.28
2023-08-31T02:12:19.696Z,100106.47
2023-08-31T02:14:51.323Z,100109.38
2023-08-31T02:17:23.071Z,100097.53
2023-08-31T02:19:54.651Z,100092.19
2023-08-31T02:22:26.558Z,100099.19
2023-08-31T02:24:58.065Z,100105.72
2023-08-31T02:27:29.917Z,100105.25
2023-08-31T02:30:01.710Z,100111.03
2023-08-31T02:32:33.418Z,100099.91
2023-08-31T02:35:04.996Z,100098.47
2023-08-31T02:37:36.562Z,100110.69
2023-08-31T02:40:08.220Z,100121.19
2023-08-31T02:42:39.758Z,100122.66
2023-08-31T02:45:11.858Z,100118.31
2023-08-31T02:47:43.441Z,100117.78
2023-08-31T02:50:15.327Z,100121.09
2023-08-31T02:52:46.829Z,100125.41
2023-08-31T02:55:18.340Z,100117.41
2023-08-31T02:57:49.881Z,100115.28
2023-08-31T03:00:21.755Z,100125.84
2023-08-31T03:02:53.653Z,100124.66
2023-08-31T03:05:25.242Z,100041.50
2023-08-31T03:07:57.050Z,100134.84
2023-08-31T03:10:28.569Z,100143.75
2023-08-31T03:13:00.433Z,100132.09
2023-08-31T03:15:31.931Z,100136.97
2023-08-31T03:18:03.517Z,100134.47
2023-08-31T03:20:35.043Z,100135.13
2023-08-31T03:23:06.782Z,100136.78
2023-08-31T03:25:38.684Z,100143.94
2023-08-31T03:28:11.448Z,100148.25
2023-08-31T03:30:43.317Z,100150.75
2023-08-31T03:33:15.205Z,100150.91
2023-08-31T03:35:47.233Z,100151.56
2023-08-31T03:38:18.773Z,100148.06
2023-08-31T03:40:50.616Z,100147.25
2023-08-31T03:43:22.110Z,100143.47
2023-08-31T03:45:54.061Z,100146.06
2023-08-31T03:48:25.601Z,100148.25
2023-08-31T03:50:57.103Z,100155.88
2023-08-31T03:53:28.870Z,100162.59
2023-08-31T03:56:00.567Z,100153.41
2023-08-31T03:58:32.442Z,100154.22
2023-08-31T04:01:03.957Z,100160.63
2023-08-31T04:03:35.936Z,100167.09
2023-08-31T04:06:07.617Z,100158.81
2023-08-31T04:08:39.149Z,100167.31
2023-08-31T04:11:10.685Z,100166.31
2023-08-31T04:13:42.704Z,100169.63
2023-08-31T04:16:14.281Z,100167.63
2023-08-31T04:18:46.215Z,100173.94
2023-08-31T04:21:18.026Z,100180.28
2023-08-31T04:23:49.559Z,100179.47
2023-08-31T04:26:21.416Z,100177.81
2023-08-31T04:28:52.943Z,100181.94
2023-08-31T04:31:24.847Z,100179.56
2023-08-31T04:33:56.398Z,100175.25
2023-08-31T04:36:27.929Z,100181.41
2023-08-31T04:38:59.439Z,100179.47
2023-08-31T04:41:31.283Z,100179.94
2023-08-31T04:44:02.797Z,100185.44
2023-08-31T04:46:34.504Z,100189.09
2023-08-31T04:49:06.021Z,100196.19
2023-08-31T04:51:39.019Z,100202.84
2023-08-31T04:54:12.428Z,100198.16
2023-08-31T04:56:44.186Z,100191.78
2023-08-31T04:59:16.064Z,100188.69
2023-08-31T05:01:47.574Z,100203.75
2023-08-31T05:04:19.488Z,100197.97
2023-08-31T05:06:50.981Z,100202.00
2023-08-31T05:09:22.822Z,100201.28
2023-08-31T05:11:54.364Z,100204.72
2023-08-31T05:14:26.247Z,100204.06
2023-08-31T05:16:57.860Z,100209.50
2023-08-31T05:19:29.606Z,100205.72
2023-08-31T05:22:01.459Z,100206.38
2023-08-31T05:24:33.276Z,100208.94
2023-08-31T05:27:04.802Z,100212.25
2023-08-31T05:29:36.313Z,100217.50
2023-08-31T05:32:07.822Z,100222.72
2023-08-31T05:34:39.498Z,100229.25
2023-08-31T05:37:11.462Z,100233.28
2023-08-31T05:39:43.008Z,100230.72
2023-08-31T05:42:14.569Z,100238.88
2023-08-31T05:44:46.070Z,100243.75
2023-08-31T05:47:17.948Z,100242.69
2023-08-31T05:49:49.457Z,100241.41
2023-08-31T05:52:21.295Z,100244.63
2023-08-31T05:54:53.428Z,100250.81
2023-08-31T05:57:24.984Z,100243.91
2023-08-31T05:59:56.953Z,100248.59
2023-08-31T06:02:28.499Z,100254.97
2023-08-31T06:05:00.224Z,100257.44
2023-08-31T06:07:31.713Z,100258.47
2023-08-31T06:10:03.237Z,100254.03
2023-08-31T06:12:34.766Z,100261.94
2023-08-31T06:15:06.273Z,100268.81
2023-08-31T06:17:37.842Z,100270.88
2023-08-31T06:20:09.393Z,100263.56
2023-08-31T06:22:41.304Z,100269.28
2023-08-31T06:25:12.837Z,100266.00
2023-08-31T06:27:44.364Z,100274.31
2023-08-31T06:30:15.859Z,100274.31
2023-08-31T06:32:47.890Z,100277.53
2023-08-31T06:35:20.740Z,100275.63
2023-08-31T06:37:53.567Z,100277.94
2023-08-31T06:40:25.067Z,100280.78
2023-08-31T06:42:56.990Z,100290.34
2023-08-31T06:45:28.492Z,100286.88
2023-08-31T06:48:00.387Z,100290.66
2023-08-31T06:50:32.081Z,100292.31
2023-08-31T06:53:03.620Z,100290.72
2023-08-31T06:55:35.456Z,100292.09
2023-08-31T06:58:06.959Z,100296.91
2023-08-31T07:00:38.809Z,100287.53
2023-08-31T07:03:10.544Z,100300.13
2023-08-31T07:05:42.541Z,100302.81
2023-08-31T07:08:14.048Z,100301.63
2023-08-31T07:10:45.781Z,100303.19
2023-08-31T07:13:17.281Z,100304.66
2023-08-31T07:15:49.193Z,100303.69
2023-08-31T07:18:20.815Z,100296.38
2023-08-31T07:20:52.884Z,100297.16
2023-08-31T07:23:24.777Z,100304.34
2023-08-31T07:25:56.291Z,100307.91
2023-08-31T07:28:28.133Z,100314.19
2023-08-31T07:30:59.696Z,100315.31
2023-08-31T07:33:31.725Z,100322.22
2023-08-31T07:36:03.316Z,100330.00
2023-08-31T07:38:34.900Z,100333.09
2023-08-31T07:41:06.419Z,100338.81
2023-08-31T07:43:39.588Z,100340.41
2023-08-31T07:46:15.245Z,100340.91
2023-08-31T07:48:47.144Z,100343.44
2023-08-31T07:51:19.098Z,100345.75
2023-08-31T07:53:50.597Z,100350.00
2023-08-31T07:56:22.487Z,100353.72
2023-08-31T07:58:54.044Z,100351.41
2023-08-31T08:01:25.965Z,100357.63
2023-08-31T08:03:57.554Z,100355.59
2023-08-31T08:06:29.471Z,100348.19
2023-08-31T08:09:00.975Z,100356.38
2023-08-31T08:11:32.866Z,100358.69
2023-08-31T08:14:04.424Z,100360.53
2023-08-31T08:16:36.171Z,100362.00
2023-08-31T08:19:07.755Z,100360.78
2023-08-31T08:21:39.301Z,100361.31
2023-08-31T08:24:12.406Z,100362.00
2023-08-31T08:26:43.903Z,100350.84
2023-08-31T08:29:15.734Z,100355.78
2023-08-31T08:31:47.265Z,100362.22
2023-08-31T08:34:19.037Z,100352.91
2023-08-31T08:36:50.544Z,100358.28
2023-08-31T08:39:22.260Z,100353.75
2023-08-31T08:41:54.122Z,100357.19
2023-08-31T08:44:25.944Z,100350.84
2023-08-31T08:46:57.457Z,100352.94
2023-08-31T08:49:28.997Z,100360.13
2023-08-31T08:52:00.853Z,100360.50
2023-08-31T08:54:32.345Z,100347.88
2023-08-31T08:57:03.848Z,100338.25
2023-08-31T08:59:35.376Z,100340.47
2023-08-31T09:02:06.905Z,100347.47
2023-08-31T09:04:38.627Z,100345.44
2023-08-31T09:07:10.404Z,100353.53
2023-08-31T09:09:41.904Z,100352.53
2023-08-31T09:12:13.588Z,100349.53
2023-08-31T09:14:45.116Z,100355.72
2023-08-31T09:17:16.665Z,100346.13
2023-08-31T09:19:48.220Z,100360.50
2023-08-31T09:22:19.802Z,100351.34
2023-08-31T09:24:51.690Z,100349.66
2023-08-31T09:27:23.194Z,100359.25
2023-08-31T09:29:55.090Z,100359.53
2023-08-31T09:32:26.618Z,100355.97
2023-08-31T09:35:06.895Z,100362.47
2023-08-31T09:37:46.536Z,100358.94
2023-08-31T09:40:18.349Z,100357.41
2023-08-31T09:42:50.173Z,100346.78
2023-08-31T09:45:29.443Z,100349.81
2023-08-31T09:48:11.716Z,100341.00
2023-08-31T09:50:43.311Z,100332.78
2023-08-31T09:53:15.320Z,100339.72
2023-08-31T09:55:47.070Z,100333.13
2023-08-31T09:58:18.927Z,100330.84
2023-08-31T10:00:50.488Z,100332.53
2023-08-31T10:03:22.525Z,100332.97
2023-08-31T10:05:54.330Z,100328.84
2023-08-31T10:08:25.838Z,100327.47
2023-08-31T10:10:57.785Z,100333.63
2023-08-31T10:13:29.305Z,100342.84
2023-08-31T10:16:01.070Z,100349.88
2023-08-31T10:18:32.568Z,100346.84
2023-08-31T10:21:04.097Z,100344.34
2023-08-31T10:23:36.454Z,100337.09
2023-08-31T10:26:09.894Z,100337.13
2023-08-31T10:28:41.518Z,100347.94
2023-08-31T10:31:13.445Z,100350.97
2023-08-31T10:33:45.356Z,100359.72
2023-08-31T10:36:17.253Z,100359.97
2023-08-31T10:38:49.109Z,100366.50
2023-08-31T10:41:20.674Z,100398.34
2023-08-31T10:43:52.513Z,100406.19
2023-08-31T10:46:24.077Z,100404.13
2023-08-31T10:48:55.941Z,100391.16
2023-08-31T10:51:27.430Z,100385.91
2023-08-31T10:54:04.238Z,100384.53
2023-08-31T10:56:35.728Z,100376.41
2023-08-31T10:59:07.279Z,100382.03
2023-08-31T11:01:39.150Z,100385.16
2023-08-31T11:04:11.285Z,100380.56
2023-08-31T11:06:43.214Z,100376.94
2023-08-31T11:09:14.923Z,100367.63
2023-08-31T11:11:46.949Z,100367.59
2023-08-31T11:14:18.519Z,100370.56
2023-08-31T11:16:50.074Z,100369.19
2023-08-31T11:19:21.598Z,100370.06
2023-08-31T11:21:53.429Z,100359.56
2023-08-31T11:24:24.947Z,100361.34
2023-08-31T11:26:56.488Z,100352.16
2023-08-31T11:29:28.277Z,100349.56
2023-08-31T11:32:00.206Z,100351.84
2023-08-31T11:34:32.109Z,100345.53
2023-08-31T11:37:03.620Z,100331.06
2023-08-31T11:39:35.424Z,100334.59
2023-08-31T11:42:06.908Z,100335.38
2023-08-31T11:44:38.812Z,100324.00
2023-08-31T11:47:10.374Z,100326.06
2023-08-31T11:49:42.270Z,100266.69
2023-08-31T11:52:13.769Z,100331.34
2023-08-31T11:54:45.616Z,100317.88
2023-08-31T11:57:17.123Z,100328.28
2023-08-31T11:59:48.632Z,100335.22
2023-08-31T12:02:20.606Z,100331.31
2023-08-31T12:04:52.125Z,100334.44
2023-08-31T12:07:23.894Z,100344.50
2023-08-31T12:09:55.408Z,100338.19
2023-08-31T12:12:27.302Z,100328.72
2023-08-31T12:14:58.800Z,100350.97
2023-08-31T12:17:30.607Z,100352.28
2023-08-31T12:20:02.130Z,100333.34
2023-08-31T12:22:33.842Z,100321.19
2023-08-31T12:25:05.341Z,100337.34
2023-08-31T12:27:37.218Z,100337.13
2023-08-31T12:30:08.749Z,100351.09
2023-08-31T12:32:40.439Z,100284.13
2023-08-31T12:35:12.026Z,100352.94
2023-08-31T12:37:43.512Z,100357.91
2023-08-31T12:40:15.470Z,100356.84
2023-08-31T12:42:46.968Z,100382.75
2023-08-31T12:45:18.478Z,100392.47
2023-08-31T12:47:49.991Z,100392.84
2023-08-31T12:50:21.713Z,100385.00
2023-08-31T12:52:53.209Z,100382.94
2023-08-31T12:55:25.050Z,100385.78
2023-08-31T12:57:56.543Z,100385.16
2023-08-31T13:00:28.433Z,100387.25
2023-08-31T13:03:00.261Z,100389.66
2023-08-31T13:05:32.116Z,100384.34
2023-08-31T13:08:03.838Z,100378.31
2023-08-31T13:10:35.387Z,100383.84
2023-08-31T13:13:06.915Z,100376.38
2023-08-31T13:15:38.431Z,100373.31
2023-08-31T13:18:10.006Z,100372.69
2023-08-31T13:20:41.532Z,100371.81
2023-08-31T13:23:13.570Z,100377.31
2023-08-31T13:25:45.156Z,100379.16
2023-08-31T13:28:17.007Z,100371.53
2023-08-31T13:30:48.528Z,100386.38
2023-08-31T13:33:20.353Z,100286.66
2023-08-31T13:35:52.175Z,100394.59
2023-08-31T13:38:23.681Z,100395.03
2023-08-31T13:40:55.516Z,100383.50
2023-08-31T13:43:27.043Z,100397.09
2023-08-31T13:45:58.902Z,100401.41
2023-08-31T13:48:32.452Z,100409.09
2023-08-31T13:51:05.126Z,100399.75
2023-08-31T13:53:36.640Z,100419.63
2023-08-31T13:56:08.171Z,100439.31
2023-08-31T13:58:39.679Z,100466.22
2023-08-31T14:01:11.405Z,100461.59
2023-08-31T14:03:43.171Z,100456.34
2023-08-31T14:06:15.110Z,100435.16
2023-08-31T14:08:46.823Z,100435.28
2023-08-31T14:11:18.300Z,100427.22
2023-08-31T14:13:50.344Z,100425.47
2023-08-31T14:16:21.851Z,100423.81
2023-08-31T14:18:53.882Z,100413.47
2023-08-31T14:21:25.392Z,100420.53
2023-08-31T14:23:57.215Z,100426.81
2023-08-31T14:26:28.714Z,100412.91
2023-08-31T14:29:00.672Z,100414.66
2023-08-31T14:31:32.204Z,100418.06
2023-08-31T14:34:03.734Z,100410.78
2023-08-31T14:36:35.571Z,100409.09
2023-08-31T14:39:07.068Z,100419.81
2023-08-31T14:41:38.891Z,100427.94
2023-08-31T14:44:10.392Z,100436.41
2023-08-31T14:46:42.232Z,100437.41
2023-08-31T14:49:13.741Z,100441.78
2023-08-31T14:51:45.594Z,100436.81
2023-08-31T14:54:17.111Z,100438.94
2023-08-31T14:56:48.956Z,100432.75
2023-08-31T14:59:20.482Z,100436.09
2023-08-31T15:01:52.294Z,100442.00
2023-08-31T15:04:23.784Z,100444.34
2023-08-31T15:06:55.309Z,100442.16
2023-08-31T15:09:27.090Z,100457.84
2023-08-31T15:11:58.756Z,100454.53
2023-08-31T15:14:30.604Z,100458.03
2023-08-31T15:17:02.297Z,100456.00
2023-08-31T15:19:34.112Z,100461.94
2023-08-31T15:22:05.616Z,100461.13
2023-08-31T15:24:37.308Z,100460.34
2023-08-31T15:27:08.810Z,100467.34
2023-08-31T15:29:40.544Z,100463.81
2023-08-31T15:32:12.037Z,100463.38
2023-08-31T15:34:43.933Z,100461.91
2023-08-31T15:37:15.433Z,100474.53
2023-08-31T15:39:47.258Z,100475.34
2023-08-31T15:42:18.946Z,100476.38
2023-08-31T15:44:50.904Z,100478.72
2023-08-31T15:47:22.736Z,100478.94
2023-08-31T15:49:54.242Z,100465.31
2023-08-31T15:52:26.060Z,100470.53
2023-08-31T15:54:57.585Z,100481.75
2023-08-31T15:57:29.413Z,100479.25
2023-08-31T16:00:00.934Z,100478.19
2023-08-31T16:02:32.755Z,100485.59
2023-08-31T16:05:04.266Z,100484.56
2023-08-31T16:07:36.144Z,100488.72
2023-08-31T16:10:07.661Z,100485.03
2023-08-31T16:12:39.545Z,100484.31
2023-08-31T16:15:11.339Z,100487.63
2023-08-31T16:17:42.903Z,100484.50
2023-08-31T16:20:14.439Z,100480.19
2023-08-31T16:22:45.953Z,100476.16
2023-08-31T16:25:17.493Z,100479.69
2023-08-31T16:27:49.027Z,100475.56
2023-08-31T16:30:20.806Z,100473.53
2023-08-31T16:32:52.350Z,100468.75
2023-08-31T16:35:24.280Z,100467.09
2023-08-31T16:37:55.803Z,100476.13
2023-08-31T16:40:27.474Z,100475.13
2023-08-31T16:42:58.977Z,100482.59
2023-08-31T16:45:30.691Z,100487.03
2023-08-31T16:48:02.254Z,100487.94
2023-08-31T16:50:34.089Z,100499.81
2023-08-31T16:53:05.628Z,100510.50
2023-08-31T16:55:37.158Z,100517.50
2023-08-31T16:58:08.652Z,100526.88
2023-08-31T17:00:40.165Z,100499.13
2023-08-31T17:03:12.137Z,100499.91
2023-08-31T17:05:43.730Z,100526.00
2023-08-31T17:08:15.788Z,100535.41
2023-08-31T17:10:47.612Z,100538.13
2023-08-31T17:13:19.447Z,100526.09
2023-08-31T17:15:51.056Z,100513.91
2023-08-31T17:18:23.006Z,100516.06
2023-08-31T17:20:54.952Z,100508.63
2023-08-31T17:23:26.904Z,100502.47
2023-08-31T17:25:58.722Z,100511.31
2023-08-31T17:28:30.225Z,100500.31
2023-08-31T17:31:02.105Z,100503.47
2023-08-31T17:33:33.649Z,100510.13
2023-08-31T17:36:05.227Z,100511.47
2023-08-31T17:38:36.720Z,100514.47
2023-08-31T17:41:08.308Z,100507.31
2023-08-31T17:43:39.863Z,100511.97
2023-08-31T17:46:11.774Z,100522.28
2023-08-31T17:48:43.293Z,100523.13
2023-08-31T17:51:15.148Z,100528.97
2023-08-31T17:53:47.070Z,100528.97
2023-08-31T17:56:18.967Z,100529.44
2023-08-31T17:58:50.723Z,100533.09
2023-08-31T18:01:22.341Z,100532.59
2023-08-31T18:03:54.308Z,100539.41
2023-08-31T18:06:25.788Z,100526.94
2023-08-31T18:08:57.604Z,100515.16
2023-08-31T18:11:29.099Z,100511.81
2023-08-31T18:14:01.051Z,100532.88
2023-08-31T18:16:32.579Z,100536.72
2023-08-31T18:19:04.104Z,100539.88
2023-08-31T18:21:35.867Z,100549.53
2023-08-31T18:24:07.378Z,100542.88
2023-08-31T18:26:38.910Z,100557.63
2023-08-31T18:29:10.389Z,100549.50
2023-08-31T18:31:42.348Z,100561.44
2023-08-31T18:34:13.854Z,100569.75
2023-08-31T18:36:45.788Z,100574.75
2023-08-31T18:39:17.279Z,100569.91
2023-08-31T18:41:48.790Z,100569.72
2023-08-31T18:44:20.268Z,100568.41
2023-08-31T18:46:52.186Z,100571.34
2023-08-31T18:49:23.696Z,100569.50
2023-08-31T18:51:55.592Z,100570.66
2023-08-31T18:54:27.389Z,100575.13
2023-08-31T18:56:58.885Z,100570.31
2023-08-31T18:59:30.847Z,100567.88
2023-08-31T19:02:02.385Z,100567.88
2023-08-31T19:04:34.187Z,100569.19
2023-08-31T19:07:05.680Z,100576.31
2023-08-31T19:09:37.529Z,100571.31
2023-08-31T19:12:09.050Z,100572.31
2023-08-31T19:14:41.041Z,100558.50
2023-08-31T19:17:12.562Z,100560.94
2023-08-31T19:19:44.300Z,100566.25
2023-08-31T19:22:16.038Z,100566.94
2023-08-31T19:24:47.920Z,100562.47
2023-08-31T19:27:19.791Z,100569.59
2023-08-31T19:29:51.403Z,100562.78
2023-08-31T19:32:23.120Z,100566.78
2023-08-31T19:34:54.607Z,100567.78
2023-08-31T19:37:26.102Z,100576.09
2023-08-31T19:39:57.632Z,100588.69
2023-08-31T19:42:29.308Z,100590.38
2023-08-31T19:45:00.950Z,100585.72
2023-08-31T19:47:33.078Z,100586.41
2023-08-31T19:50:04.595Z,100588.22
2023-08-31T19:52:36.402Z,100591.03
2023-08-31T19:55:07.926Z,100591.03
2023-08-31T19:57:39.435Z,100605.16
2023-08-31T20:00:11.224Z,100605.69
2023-08-31T20:02:42.750Z,100602.72
2023-08-31T20:05:14.306Z,100602.56
2023-08-31T20:07:45.835Z,100598.91
2023-08-31T20:10:17.359Z,100599.09
2023-08-31T20:12:48.852Z,100603.09
2023-08-31T20:15:20.355Z,100600.13
2023-08-31T20:17:51.893Z,100608.91
2023-08-31T20:20:23.824Z,100605.22
2023-08-31T20:22:55.616Z,100529.00
2023-08-31T20:25:27.288Z,100605.59
2023-08-31T20:27:59.079Z,100615.03
2023-08-31T20:30:30.565Z,100612.53
2023-08-31T20:33:02.441Z,100620.16
2023-08-31T20:35:34.024Z,100618.16
2023-08-31T20:38:05.516Z,100614.31
2023-08-31T20:40:37.000Z,100613.34
2023-08-31T20:43:08.525Z,100615.00
2023-08-31T20:45:40.036Z,100617.66
2023-08-31T20:48:11.943Z,100614.00
2023-08-31T20:50:43.840Z,100624.94
2023-08-31T20:53:15.641Z,100623.59
2023-08-31T20:55:47.464Z,100622.06
2023-08-31T20:58:18.974Z,100629.38
2023-08-31T21:00:50.508Z,100626.84
2023-08-31T21:03:21.992Z,100632.84
2023-08-31T21:05:53.695Z,100639.47
2023-08-31T21:08:25.174Z,100639.31
2023-08-31T21:10:57.014Z,100648.78
2023-08-31T21:13:28.502Z,100644.00
2023-08-31T21:16:00.499Z,100652.63
2023-08-31T21:18:32.317Z,100651.81
2023-08-31T21:21:03.850Z,100650.13
2023-08-31T21:23:35.394Z,100653.47
2023-08-31T21:26:06.944Z,100655.13
2023-08-31T21:28:38.494Z,100655.00
2023-08-31T21:31:10.047Z,100667.59
2023-08-31T21:33:42.076Z,100665.91
2023-08-31T21:36:13.556Z,100670.63
2023-08-31T21:38:45.087Z,100667.78
2023-08-31T21:41:16.555Z,100664.47
2023-08-31T21:43:48.343Z,100659.31
2023-08-31T21:46:20.210Z,100672.94
2023-08-31T21:48:51.998Z,100679.06
2023-08-31T21:51:23.838Z,100677.09
2023-08-31T21:53:55.354Z,100674.59
2023-08-31T21:56:27.224Z,100682.72
2023-08-31T21:58:58.732Z,100679.41
2023-08-31T22:01:30.697Z,100677.56
2023-08-31T22:04:02.402Z,100680.06
2023-08-31T22:06:34.437Z,100679.56
2023-08-31T22:09:08.197Z,100680.88
2023-08-31T22:11:40.093Z,100686.19
2023-08-31T22:14:11.571Z,100691.63
2023-08-31T22:16:43.412Z,100694.44
2023-08-31T22:19:15.160Z,100691.13
2023-08-31T22:21:46.648Z,100690.44
2023-08-31T22:24:18.588Z,100693.09
2023-08-31T22:26:50.070Z,100695.28
2023-08-31T22:29:21.864Z,100698.78
2023-08-31T22:31:53.428Z,100698.56
2023-08-31T22:34:25.165Z,100691.13
2023-08-31T22:36:56.677Z,100691.56
2023-08-31T22:39:28.528Z,100687.56
2023-08-31T22:42:00.039Z,100685.06
2023-08-31T22:44:31.867Z,100690.00
2023-08-31T22:47:03.387Z,100682.19
2023-08-31T22:49:34.877Z,100691.44
2023-08-31T22:52:06.376Z,100688.56
2023-08-31T22:54:37.874Z,100686.38
2023-08-31T22:57:09.361Z,100679.19
2023-08-31T22:59:40.905Z,100684.94
2023-08-31T23:02:12.790Z,100677.44
2023-08-31T23:04:44.330Z,100675.75
2023-08-31T23:07:16.103Z,100679.69
2023-08-31T23:09:47.584Z,100682.50
2023-08-31T23:12:19.424Z,100684.47
2023-08-31T23:14:53.265Z,100690.53
2023-08-31T23:17:25.073Z,100689.00
2023-08-31T23:19:56.945Z,100688.09
2023-08-31T23:22:28.431Z,100696.22
2023-08-31T23:25:00.281Z,100692.72
2023-08-31T23:27:31.794Z,100694.16
2023-08-31T23:30:03.343Z,100702.81
2023-08-31T23:32:34.889Z,100695.22
2023-08-31T23:35:06.393Z,100699.09
2023-08-31T23:37:40.878Z,100702.13
2023-08-31T23:40:12.617Z,100598.72
2023-08-31T23:42:44.477Z,100707.97
2023-08-31T23:45:16.007Z,100706.44
2023-08-31T23:47:47.688Z,100710.22
2023-08-31T23:50:19.256Z,100713.03
2023-08-31T23:52:51.082Z,100724.47
2023-08-31T23:55:22.549Z,100716.16
2023-08-31T23:57:54.214Z,100720.63
